sensor_id;sensor_type;location;lat;lon;timestamp;P1;durP1;ratioP1;P2;durP2;ratioP2
29030;SDS011;16122;50.236;11.734;2022-08-01T00:01:25;4.77;;;4.37;;
29030;SDS011;16122;50.236;11.734;2022-08-01T00:03:51;4.50;;;4.10;;
29030;SDS011;16122;50.236;11.734;2022-08-01T00:06:16;5.40;;;4.83;;
29030;SDS011;16122;50.236;11.734;2022-08-01T00:08:43;4.70;;;4.20;;
29030;SDS011;16122;50.236;11.734;2022-08-01T00:11:08;5.30;;;4.90;;
29030;SDS011;16122;50.236;11.734;2022-08-01T00:13:34;4.90;;;4.50;;
29030;SDS011;16122;50.236;11.734;2022-08-01T00:16:00;6.37;;;4.90;;
29030;SDS011;16122;50.236;11.734;2022-08-01T00:18:26;4.57;;;4.07;;
29030;SDS011;16122;50.236;11.734;2022-08-01T00:20:52;4.80;;;4.40;;
29030;SDS011;16122;50.236;11.734;2022-08-01T00:23:18;5.40;;;4.47;;
29030;SDS011;16122;50.236;11.734;2022-08-01T00:25:44;4.63;;;4.30;;
29030;SDS011;16122;50.236;11.734;2022-08-01T00:28:10;7.40;;;5.10;;
29030;SDS011;16122;50.236;11.734;2022-08-01T00:30:36;4.93;;;4.53;;
29030;SDS011;16122;50.236;11.734;2022-08-01T00:33:02;4.47;;;4.07;;
29030;SDS011;16122;50.236;11.734;2022-08-01T00:35:28;7.00;;;4.23;;
29030;SDS011;16122;50.236;11.734;2022-08-01T00:37:54;5.07;;;4.47;;
29030;SDS011;16122;50.236;11.734;2022-08-01T00:40:20;4.60;;;4.20;;
29030;SDS011;16122;50.236;11.734;2022-08-01T00:42:47;4.93;;;4.43;;
29030;SDS011;16122;50.236;11.734;2022-08-01T00:45:13;6.67;;;4.23;;
29030;SDS011;16122;50.236;11.734;2022-08-01T00:47:39;5.57;;;4.00;;
29030;SDS011;16122;50.236;11.734;2022-08-01T00:50:05;5.17;;;4.47;;
29030;SDS011;16122;50.236;11.734;2022-08-01T00:52:32;5.00;;;3.90;;
29030;SDS011;16122;50.236;11.734;2022-08-01T00:54:59;4.60;;;3.60;;
29030;SDS011;16122;50.236;11.734;2022-08-01T00:57:25;5.20;;;4.70;;
29030;SDS011;16122;50.236;11.734;2022-08-01T00:59:51;4.80;;;3.80;;
29030;SDS011;16122;50.236;11.734;2022-08-01T01:02:18;4.23;;;3.93;;
29030;SDS011;16122;50.236;11.734;2022-08-01T01:04:44;4.60;;;4.30;;
29030;SDS011;16122;50.236;11.734;2022-08-01T01:07:15;4.83;;;4.40;;
29030;SDS011;16122;50.236;11.734;2022-08-01T01:10:02;4.43;;;4.03;;
29030;SDS011;16122;50.236;11.734;2022-08-01T01:12:38;4.63;;;4.33;;
29030;SDS011;16122;50.236;11.734;2022-08-01T01:18:03;4.53;;;4.13;;
29030;SDS011;16122;50.236;11.734;2022-08-01T01:20:38;3.87;;;3.57;;
29030;SDS011;16122;50.236;11.734;2022-08-01T01:30:52;5.23;;;4.20;;
29030;SDS011;16122;50.236;11.734;2022-08-01T01:33:20;4.50;;;4.10;;
29030;SDS011;16122;50.236;11.734;2022-08-01T01:35:51;4.33;;;4.10;;
29030;SDS011;16122;50.236;11.734;2022-08-01T01:38:21;5.00;;;4.50;;
29030;SDS011;16122;50.236;11.734;2022-08-01T01:40:51;4.50;;;4.10;;
29030;SDS011;16122;50.236;11.734;2022-08-01T01:43:18;5.80;;;4.23;;
29030;SDS011;16122;50.236;11.734;2022-08-01T01:45:48;4.83;;;4.40;;
29030;SDS011;16122;50.236;11.734;2022-08-01T01:48:16;4.37;;;3.97;;
29030;SDS011;16122;50.236;11.734;2022-08-01T01:50:44;5.03;;;4.63;;
29030;SDS011;16122;50.236;11.734;2022-08-01T01:53:13;4.23;;;3.93;;
29030;SDS011;16122;50.236;11.734;2022-08-01T01:55:41;5.47;;;4.00;;
29030;SDS011;16122;50.236;11.734;2022-08-01T01:58:12;4.40;;;4.00;;
29030;SDS011;16122;50.236;11.734;2022-08-01T02:00:39;4.83;;;4.33;;
29030;SDS011;16122;50.236;11.734;2022-08-01T02:03:10;5.90;;;4.17;;
29030;SDS011;16122;50.236;11.734;2022-08-01T02:05:37;4.70;;;4.30;;
29030;SDS011;16122;50.236;11.734;2022-08-01T02:08:05;4.27;;;3.97;;
29030;SDS011;16122;50.236;11.734;2022-08-01T02:10:33;4.83;;;4.33;;
29030;SDS011;16122;50.236;11.734;2022-08-01T02:13:02;5.27;;;3.87;;
29030;SDS011;16122;50.236;11.734;2022-08-01T02:15:30;4.80;;;4.40;;
29030;SDS011;16122;50.236;11.734;2022-08-01T02:17:58;4.50;;;4.10;;
29030;SDS011;16122;50.236;11.734;2022-08-01T02:20:27;3.80;;;3.53;;
29030;SDS011;16122;50.236;11.734;2022-08-01T02:23:16;4.97;;;4.47;;
29030;SDS011;16122;50.236;11.734;2022-08-01T02:25:46;4.30;;;4.00;;
29030;SDS011;16122;50.236;11.734;2022-08-01T02:28:17;4.00;;;3.60;;
29030;SDS011;16122;50.236;11.734;2022-08-01T02:30:53;4.27;;;3.93;;
29030;SDS011;16122;50.236;11.734;2022-08-01T02:33:26;4.33;;;4.03;;
29030;SDS011;16122;50.236;11.734;2022-08-01T02:35:58;5.30;;;4.30;;
29030;SDS011;16122;50.236;11.734;2022-08-01T02:38:27;5.03;;;4.63;;
29030;SDS011;16122;50.236;11.734;2022-08-01T02:40:58;3.80;;;3.50;;
29030;SDS011;16122;50.236;11.734;2022-08-01T02:43:29;5.00;;;4.50;;
29030;SDS011;16122;50.236;11.734;2022-08-01T02:45:59;5.20;;;3.90;;
29030;SDS011;16122;50.236;11.734;2022-08-01T02:48:26;4.13;;;3.83;;
29030;SDS011;16122;50.236;11.734;2022-08-01T02:50:54;3.50;;;3.13;;
29030;SDS011;16122;50.236;11.734;2022-08-01T02:53:23;4.00;;;3.70;;
29030;SDS011;16122;50.236;11.734;2022-08-01T02:55:51;3.83;;;3.53;;
29030;SDS011;16122;50.236;11.734;2022-08-01T02:58:19;4.10;;;3.70;;
29030;SDS011;16122;50.236;11.734;2022-08-01T03:00:46;3.90;;;3.60;;
29030;SDS011;16122;50.236;11.734;2022-08-01T03:03:13;4.23;;;3.83;;
29030;SDS011;16122;50.236;11.734;2022-08-01T03:05:40;4.90;;;4.40;;
29030;SDS011;16122;50.236;11.734;2022-08-01T03:08:08;5.23;;;3.97;;
29030;SDS011;16122;50.236;11.734;2022-08-01T03:10:36;4.37;;;3.97;;
29030;SDS011;16122;50.236;11.734;2022-08-01T03:13:04;4.20;;;3.90;;
29030;SDS011;16122;50.236;11.734;2022-08-01T03:15:33;4.83;;;3.83;;
29030;SDS011;16122;50.236;11.734;2022-08-01T03:18:03;3.97;;;3.67;;
29030;SDS011;16122;50.236;11.734;2022-08-01T03:20:32;4.03;;;3.70;;
29030;SDS011;16122;50.236;11.734;2022-08-01T03:22:59;3.90;;;3.60;;
29030;SDS011;16122;50.236;11.734;2022-08-01T03:25:29;3.80;;;3.50;;
29030;SDS011;16122;50.236;11.734;2022-08-01T03:27:58;4.00;;;3.70;;
29030;SDS011;16122;50.236;11.734;2022-08-01T03:30:26;4.60;;;4.20;;
29030;SDS011;16122;50.236;11.734;2022-08-01T03:32:53;3.63;;;3.43;;
29030;SDS011;16122;50.236;11.734;2022-08-01T03:35:19;3.70;;;3.40;;
29030;SDS011;16122;50.236;11.734;2022-08-01T03:37:49;4.27;;;3.87;;
29030;SDS011;16122;50.236;11.734;2022-08-01T03:40:22;3.63;;;3.43;;
29030;SDS011;16122;50.236;11.734;2022-08-01T03:42:53;3.80;;;3.37;;
29030;SDS011;16122;50.236;11.734;2022-08-01T03:45:25;5.47;;;3.33;;
29030;SDS011;16122;50.236;11.734;2022-08-01T03:47:59;4.03;;;3.70;;
29030;SDS011;16122;50.236;11.734;2022-08-01T03:50:25;4.73;;;4.00;;
29030;SDS011;16122;50.236;11.734;2022-08-01T03:52:54;4.37;;;3.97;;
29030;SDS011;16122;50.236;11.734;2022-08-01T03:55:24;4.07;;;3.70;;
29030;SDS011;16122;50.236;11.734;2022-08-01T03:57:50;4.40;;;4.00;;
29030;SDS011;16122;50.236;11.734;2022-08-01T04:00:17;6.23;;;4.07;;
29030;SDS011;16122;50.236;11.734;2022-08-01T04:02:47;5.13;;;4.20;;
29030;SDS011;16122;50.236;11.734;2022-08-01T04:05:14;6.97;;;4.00;;
29030;SDS011;16122;50.236;11.734;2022-08-01T04:07:45;4.70;;;4.00;;
29030;SDS011;16122;50.236;11.734;2022-08-01T04:10:21;6.40;;;4.10;;
29030;SDS011;16122;50.236;11.734;2022-08-01T04:12:48;4.73;;;4.03;;
29030;SDS011;16122;50.236;11.734;2022-08-01T04:15:15;4.30;;;3.63;;
29030;SDS011;16122;50.236;11.734;2022-08-01T04:17:40;4.50;;;4.10;;
29030;SDS011;16122;50.236;11.734;2022-08-01T04:20:08;6.13;;;4.40;;
29030;SDS011;16122;50.236;11.734;2022-08-01T04:22:35;6.40;;;4.37;;
29030;SDS011;16122;50.236;11.734;2022-08-01T04:25:01;5.17;;;4.30;;
29030;SDS011;16122;50.236;11.734;2022-08-01T04:27:36;4.60;;;4.20;;
29030;SDS011;16122;50.236;11.734;2022-08-01T04:30:05;6.57;;;4.60;;
29030;SDS011;16122;50.236;11.734;2022-08-01T04:32:33;4.37;;;4.07;;
29030;SDS011;16122;50.236;11.734;2022-08-01T04:35:03;4.77;;;4.30;;
29030;SDS011;16122;50.236;11.734;2022-08-01T04:37:33;5.77;;;4.30;;
29030;SDS011;16122;50.236;11.734;2022-08-01T04:40:05;4.63;;;4.23;;
29030;SDS011;16122;50.236;11.734;2022-08-01T04:42:32;4.37;;;3.97;;
29030;SDS011;16122;50.236;11.734;2022-08-01T04:44:58;5.33;;;4.20;;
29030;SDS011;16122;50.236;11.734;2022-08-01T04:47:27;4.20;;;3.90;;
29030;SDS011;16122;50.236;11.734;2022-08-01T04:49:55;4.20;;;3.80;;
29030;SDS011;16122;50.236;11.734;2022-08-01T04:52:22;4.33;;;3.93;;
29030;SDS011;16122;50.236;11.734;2022-08-01T04:54:48;4.13;;;3.80;;
29030;SDS011;16122;50.236;11.734;2022-08-01T04:57:13;4.10;;;3.80;;
29030;SDS011;16122;50.236;11.734;2022-08-01T04:59:41;5.43;;;4.13;;
29030;SDS011;16122;50.236;11.734;2022-08-01T05:02:15;4.97;;;4.40;;
29030;SDS011;16122;50.236;11.734;2022-08-01T05:04:43;4.57;;;4.23;;
29030;SDS011;16122;50.236;11.734;2022-08-01T05:07:10;4.70;;;4.30;;
29030;SDS011;16122;50.236;11.734;2022-08-01T05:09:37;5.50;;;4.40;;
29030;SDS011;16122;50.236;11.734;2022-08-01T05:12:07;4.80;;;4.40;;
29030;SDS011;16122;50.236;11.734;2022-08-01T05:14:34;4.73;;;4.07;;
29030;SDS011;16122;50.236;11.734;2022-08-01T05:17:01;4.00;;;3.70;;
29030;SDS011;16122;50.236;11.734;2022-08-01T05:19:35;4.23;;;3.83;;
29030;SDS011;16122;50.236;11.734;2022-08-01T05:22:03;4.97;;;4.47;;
29030;SDS011;16122;50.236;11.734;2022-08-01T05:24:31;5.13;;;4.07;;
29030;SDS011;16122;50.236;11.734;2022-08-01T05:26:58;4.10;;;3.70;;
29030;SDS011;16122;50.236;11.734;2022-08-01T05:29:25;4.20;;;3.90;;
29030;SDS011;16122;50.236;11.734;2022-08-01T05:31:51;4.30;;;3.90;;
29030;SDS011;16122;50.236;11.734;2022-08-01T05:34:18;4.07;;;3.67;;
29030;SDS011;16122;50.236;11.734;2022-08-01T05:36:45;4.70;;;3.60;;
29030;SDS011;16122;50.236;11.734;2022-08-01T05:39:11;3.40;;;3.00;;
29030;SDS011;16122;50.236;11.734;2022-08-01T05:41:38;4.60;;;3.90;;
29030;SDS011;16122;50.236;11.734;2022-08-01T05:44:04;3.50;;;3.20;;
29030;SDS011;16122;50.236;11.734;2022-08-01T05:46:30;4.00;;;3.60;;
29030;SDS011;16122;50.236;11.734;2022-08-01T05:49:00;4.23;;;3.73;;
29030;SDS011;16122;50.236;11.734;2022-08-01T05:51:27;3.80;;;3.50;;
29030;SDS011;16122;50.236;11.734;2022-08-01T05:53:53;4.30;;;4.00;;
29030;SDS011;16122;50.236;11.734;2022-08-01T05:56:19;3.40;;;3.10;;
29030;SDS011;16122;50.236;11.734;2022-08-01T05:58:46;3.90;;;3.60;;
29030;SDS011;16122;50.236;11.734;2022-08-01T06:01:12;3.07;;;2.83;;
29030;SDS011;16122;50.236;11.734;2022-08-01T06:03:39;3.50;;;3.20;;
29030;SDS011;16122;50.236;11.734;2022-08-01T06:06:04;3.60;;;3.30;;
29030;SDS011;16122;50.236;11.734;2022-08-01T06:08:31;6.43;;;3.40;;
29030;SDS011;16122;50.236;11.734;2022-08-01T06:10:57;3.50;;;3.20;;
29030;SDS011;16122;50.236;11.734;2022-08-01T06:13:23;3.57;;;3.00;;
29030;SDS011;16122;50.236;11.734;2022-08-01T06:15:49;3.20;;;3.00;;
29030;SDS011;16122;50.236;11.734;2022-08-01T06:18:15;3.10;;;2.90;;
29030;SDS011;16122;50.236;11.734;2022-08-01T06:20:43;3.10;;;2.87;;
29030;SDS011;16122;50.236;11.734;2022-08-01T06:23:09;3.60;;;3.27;;
29030;SDS011;16122;50.236;11.734;2022-08-01T06:25:35;3.60;;;3.30;;
29030;SDS011;16122;50.236;11.734;2022-08-01T06:28:01;2.50;;;2.37;;
29030;SDS011;16122;50.236;11.734;2022-08-01T06:30:27;3.10;;;2.90;;
29030;SDS011;16122;50.236;11.734;2022-08-01T06:32:53;3.10;;;2.90;;
29030;SDS011;16122;50.236;11.734;2022-08-01T06:35:21;2.83;;;2.63;;
29030;SDS011;16122;50.236;11.734;2022-08-01T06:37:47;2.50;;;2.30;;
29030;SDS011;16122;50.236;11.734;2022-08-01T06:40:14;3.70;;;3.40;;
29030;SDS011;16122;50.236;11.734;2022-08-01T06:42:41;2.70;;;2.60;;
29030;SDS011;16122;50.236;11.734;2022-08-01T06:45:07;3.17;;;2.80;;
29030;SDS011;16122;50.236;11.734;2022-08-01T06:47:35;3.23;;;2.60;;
29030;SDS011;16122;50.236;11.734;2022-08-01T06:50:02;3.33;;;2.33;;
29030;SDS011;16122;50.236;11.734;2022-08-01T06:52:29;2.30;;;2.10;;
29030;SDS011;16122;50.236;11.734;2022-08-01T06:54:54;2.30;;;2.07;;
29030;SDS011;16122;50.236;11.734;2022-08-01T06:57:20;3.13;;;2.60;;
29030;SDS011;16122;50.236;11.734;2022-08-01T06:59:46;2.43;;;2.23;;
29030;SDS011;16122;50.236;11.734;2022-08-01T07:02:13;2.50;;;2.30;;
29030;SDS011;16122;50.236;11.734;2022-08-01T07:04:39;3.03;;;2.83;;
29030;SDS011;16122;50.236;11.734;2022-08-01T07:07:05;3.53;;;2.83;;
29030;SDS011;16122;50.236;11.734;2022-08-01T07:09:31;2.50;;;2.30;;
29030;SDS011;16122;50.236;11.734;2022-08-01T07:11:57;2.70;;;2.50;;
29030;SDS011;16122;50.236;11.734;2022-08-01T07:14:23;2.10;;;2.00;;
29030;SDS011;16122;50.236;11.734;2022-08-01T07:16:49;3.07;;;2.43;;
29030;SDS011;16122;50.236;11.734;2022-08-01T07:19:16;2.50;;;2.30;;
29030;SDS011;16122;50.236;11.734;2022-08-01T07:21:43;2.50;;;2.30;;
29030;SDS011;16122;50.236;11.734;2022-08-01T07:24:10;2.43;;;2.20;;
29030;SDS011;16122;50.236;11.734;2022-08-01T07:26:38;2.70;;;2.50;;
29030;SDS011;16122;50.236;11.734;2022-08-01T07:29:08;2.17;;;2.00;;
29030;SDS011;16122;50.236;11.734;2022-08-01T07:31:33;2.43;;;2.33;;
29030;SDS011;16122;50.236;11.734;2022-08-01T07:33:59;2.50;;;2.30;;
29030;SDS011;16122;50.236;11.734;2022-08-01T07:36:25;2.13;;;2.03;;
29030;SDS011;16122;50.236;11.734;2022-08-01T07:38:51;2.23;;;2.13;;
29030;SDS011;16122;50.236;11.734;2022-08-01T07:41:17;2.47;;;2.27;;
29030;SDS011;16122;50.236;11.734;2022-08-01T07:43:43;2.63;;;2.17;;
29030;SDS011;16122;50.236;11.734;2022-08-01T07:46:09;2.30;;;2.10;;
29030;SDS011;16122;50.236;11.734;2022-08-01T07:48:35;2.30;;;2.20;;
29030;SDS011;16122;50.236;11.734;2022-08-01T07:51:01;2.37;;;2.17;;
29030;SDS011;16122;50.236;11.734;2022-08-01T07:53:27;2.20;;;2.10;;
29030;SDS011;16122;50.236;11.734;2022-08-01T07:55:52;2.67;;;2.47;;
29030;SDS011;16122;50.236;11.734;2022-08-01T07:58:18;2.50;;;2.30;;
29030;SDS011;16122;50.236;11.734;2022-08-01T08:00:45;2.77;;;2.00;;
29030;SDS011;16122;50.236;11.734;2022-08-01T08:03:11;3.87;;;2.23;;
29030;SDS011;16122;50.236;11.734;2022-08-01T08:05:37;2.30;;;2.10;;
29030;SDS011;16122;50.236;11.734;2022-08-01T08:08:06;2.50;;;2.30;;
29030;SDS011;16122;50.236;11.734;2022-08-01T08:10:33;2.13;;;2.03;;
29030;SDS011;16122;50.236;11.734;2022-08-01T08:12:59;2.23;;;2.13;;
29030;SDS011;16122;50.236;11.734;2022-08-01T08:15:27;2.97;;;2.10;;
29030;SDS011;16122;50.236;11.734;2022-08-01T08:17:53;2.90;;;2.33;;
29030;SDS011;16122;50.236;11.734;2022-08-01T08:20:19;2.10;;;2.00;;
29030;SDS011;16122;50.236;11.734;2022-08-01T08:22:50;2.70;;;2.50;;
29030;SDS011;16122;50.236;11.734;2022-08-01T08:25:17;1.93;;;1.80;;
29030;SDS011;16122;50.236;11.734;2022-08-01T08:27:44;2.13;;;1.93;;
29030;SDS011;16122;50.236;11.734;2022-08-01T08:30:11;2.27;;;2.07;;
29030;SDS011;16122;50.236;11.734;2022-08-01T08:32:38;2.20;;;2.00;;
29030;SDS011;16122;50.236;11.734;2022-08-01T08:35:05;2.20;;;2.00;;
29030;SDS011;16122;50.236;11.734;2022-08-01T08:37:32;2.37;;;1.90;;
29030;SDS011;16122;50.236;11.734;2022-08-01T08:39:59;2.50;;;2.13;;
29030;SDS011;16122;50.236;11.734;2022-08-01T08:42:25;2.37;;;1.83;;
29030;SDS011;16122;50.236;11.734;2022-08-01T08:44:51;2.83;;;2.60;;
29030;SDS011;16122;50.236;11.734;2022-08-01T08:47:19;2.03;;;1.90;;
29030;SDS011;16122;50.236;11.734;2022-08-01T08:49:49;2.43;;;2.20;;
29030;SDS011;16122;50.236;11.734;2022-08-01T08:52:17;2.23;;;1.83;;
29030;SDS011;16122;50.236;11.734;2022-08-01T08:54:46;4.37;;;2.17;;
29030;SDS011;16122;50.236;11.734;2022-08-01T08:57:13;2.00;;;1.90;;
29030;SDS011;16122;50.236;11.734;2022-08-01T08:59:40;2.20;;;2.10;;
29030;SDS011;16122;50.236;11.734;2022-08-01T09:02:08;2.30;;;2.20;;
29030;SDS011;16122;50.236;11.734;2022-08-01T09:04:35;2.63;;;2.43;;
29030;SDS011;16122;50.236;11.734;2022-08-01T09:07:03;2.17;;;2.00;;
29030;SDS011;16122;50.236;11.734;2022-08-01T09:09:30;2.20;;;2.10;;
29030;SDS011;16122;50.236;11.734;2022-08-01T09:11:57;2.70;;;2.50;;
29030;SDS011;16122;50.236;11.734;2022-08-01T09:14:24;2.30;;;2.20;;
29030;SDS011;16122;50.236;11.734;2022-08-01T09:16:59;2.30;;;2.10;;
29030;SDS011;16122;50.236;11.734;2022-08-01T09:19:27;2.47;;;2.27;;
29030;SDS011;16122;50.236;11.734;2022-08-01T09:22:05;2.40;;;2.30;;
29030;SDS011;16122;50.236;11.734;2022-08-01T09:24:33;2.30;;;2.10;;
29030;SDS011;16122;50.236;11.734;2022-08-01T09:26:59;2.43;;;2.10;;
29030;SDS011;16122;50.236;11.734;2022-08-01T09:29:27;2.10;;;1.97;;
29030;SDS011;16122;50.236;11.734;2022-08-01T09:31:56;2.20;;;2.10;;
29030;SDS011;16122;50.236;11.734;2022-08-01T09:34:30;2.50;;;2.30;;
29030;SDS011;16122;50.236;11.734;2022-08-01T09:36:59;2.37;;;2.17;;
29030;SDS011;16122;50.236;11.734;2022-08-01T09:39:31;2.63;;;2.43;;
29030;SDS011;16122;50.236;11.734;2022-08-01T09:42:00;2.40;;;2.20;;
29030;SDS011;16122;50.236;11.734;2022-08-01T09:44:43;2.40;;;2.20;;
29030;SDS011;16122;50.236;11.734;2022-08-01T09:47:10;2.27;;;1.87;;
29030;SDS011;16122;50.236;11.734;2022-08-01T09:49:38;1.97;;;1.87;;
29030;SDS011;16122;50.236;11.734;2022-08-01T09:52:14;2.13;;;2.03;;
29030;SDS011;16122;50.236;11.734;2022-08-01T09:54:59;2.33;;;2.13;;
29030;SDS011;16122;50.236;11.734;2022-08-01T09:57:27;3.93;;;2.67;;
29030;SDS011;16122;50.236;11.734;2022-08-01T09:59:58;2.67;;;2.47;;
29030;SDS011;16122;50.236;11.734;2022-08-01T10:02:27;3.30;;;1.90;;
29030;SDS011;16122;50.236;11.734;2022-08-01T10:05:06;2.67;;;2.33;;
29030;SDS011;16122;50.236;11.734;2022-08-01T10:07:54;2.20;;;2.07;;
29030;SDS011;16122;50.236;11.734;2022-08-01T10:10:24;2.40;;;2.20;;
29030;SDS011;16122;50.236;11.734;2022-08-01T10:12:50;2.00;;;1.90;;
29030;SDS011;16122;50.236;11.734;2022-08-01T10:15:17;3.77;;;2.17;;
29030;SDS011;16122;50.236;11.734;2022-08-01T10:18:04;2.10;;;2.00;;
29030;SDS011;16122;50.236;11.734;2022-08-01T10:20:32;1.90;;;1.80;;
29030;SDS011;16122;50.236;11.734;2022-08-01T10:23:01;2.30;;;2.10;;
29030;SDS011;16122;50.236;11.734;2022-08-01T10:25:28;2.30;;;1.77;;
29030;SDS011;16122;50.236;11.734;2022-08-01T10:27:59;1.70;;;1.60;;
29030;SDS011;16122;50.236;11.734;2022-08-01T10:30:28;2.30;;;1.83;;
29030;SDS011;16122;50.236;11.734;2022-08-01T10:32:54;1.73;;;1.63;;
29030;SDS011;16122;50.236;11.734;2022-08-01T10:35:21;2.23;;;2.10;;
29030;SDS011;16122;50.236;11.734;2022-08-01T10:37:47;2.00;;;1.80;;
29030;SDS011;16122;50.236;11.734;2022-08-01T10:40:16;1.77;;;1.60;;
29030;SDS011;16122;50.236;11.734;2022-08-01T10:42:43;1.67;;;1.57;;
29030;SDS011;16122;50.236;11.734;2022-08-01T10:45:11;1.80;;;1.70;;
29030;SDS011;16122;50.236;11.734;2022-08-01T10:47:51;1.90;;;1.80;;
29030;SDS011;16122;50.236;11.734;2022-08-01T10:50:38;1.60;;;1.47;;
29030;SDS011;16122;50.236;11.734;2022-08-01T10:55:57;1.60;;;1.47;;
29030;SDS011;16122;50.236;11.734;2022-08-01T10:58:29;1.47;;;1.37;;
29030;SDS011;16122;50.236;11.734;2022-08-01T11:09:24;1.57;;;1.47;;
29030;SDS011;16122;50.236;11.734;2022-08-01T11:12:23;1.60;;;1.50;;
29030;SDS011;16122;50.236;11.734;2022-08-01T11:20:03;1.47;;;1.37;;
29030;SDS011;16122;50.236;11.734;2022-08-01T11:22:29;1.70;;;1.60;;
29030;SDS011;16122;50.236;11.734;2022-08-01T11:24:55;2.90;;;1.67;;
29030;SDS011;16122;50.236;11.734;2022-08-01T11:27:29;1.40;;;1.30;;
29030;SDS011;16122;50.236;11.734;2022-08-01T11:32:45;1.70;;;1.60;;
29030;SDS011;16122;50.236;11.734;2022-08-01T11:35:12;1.20;;;1.10;;
29030;SDS011;16122;50.236;11.734;2022-08-01T11:37:38;1.30;;;1.20;;
29030;SDS011;16122;50.236;11.734;2022-08-01T11:40:14;1.30;;;1.20;;
29030;SDS011;16122;50.236;11.734;2022-08-01T11:42:40;1.20;;;1.10;;
29030;SDS011;16122;50.236;11.734;2022-08-01T11:45:07;1.30;;;1.20;;
29030;SDS011;16122;50.236;11.734;2022-08-01T11:47:46;1.77;;;1.30;;
29030;SDS011;16122;50.236;11.734;2022-08-01T11:53:05;1.60;;;1.40;;
29030;SDS011;16122;50.236;11.734;2022-08-01T11:55:33;1.10;;;1.00;;
29030;SDS011;16122;50.236;11.734;2022-08-01T11:58:05;1.20;;;1.13;;
29030;SDS011;16122;50.236;11.734;2022-08-01T12:00:33;1.03;;;0.97;;
29030;SDS011;16122;50.236;11.734;2022-08-01T12:03:00;1.10;;;1.00;;
29030;SDS011;16122;50.236;11.734;2022-08-01T12:05:28;0.93;;;0.83;;
29030;SDS011;16122;50.236;11.734;2022-08-01T12:07:56;1.00;;;1.00;;
29030;SDS011;16122;50.236;11.734;2022-08-01T12:10:24;1.57;;;1.20;;
29030;SDS011;16122;50.236;11.734;2022-08-01T12:12:55;4.70;;;1.03;;
29030;SDS011;16122;50.236;11.734;2022-08-01T12:15:28;1.03;;;0.90;;
29030;SDS011;16122;50.236;11.734;2022-08-01T12:18:00;1.03;;;0.93;;
29030;SDS011;16122;50.236;11.734;2022-08-01T12:20:28;1.10;;;1.00;;
29030;SDS011;16122;50.236;11.734;2022-08-01T12:22:56;1.07;;;1.00;;
29030;SDS011;16122;50.236;11.734;2022-08-01T12:25:24;0.80;;;0.80;;
29030;SDS011;16122;50.236;11.734;2022-08-01T12:27:50;1.20;;;1.10;;
29030;SDS011;16122;50.236;11.734;2022-08-01T12:30:17;1.17;;;0.83;;
29030;SDS011;16122;50.236;11.734;2022-08-01T12:32:47;0.80;;;0.80;;
29030;SDS011;16122;50.236;11.734;2022-08-01T12:35:18;2.50;;;1.10;;
29030;SDS011;16122;50.236;11.734;2022-08-01T12:38:01;0.83;;;0.83;;
29030;SDS011;16122;50.236;11.734;2022-08-01T12:40:34;0.80;;;0.70;;
29030;SDS011;16122;50.236;11.734;2022-08-01T12:43:03;0.90;;;0.90;;
29030;SDS011;16122;50.236;11.734;2022-08-01T12:45:32;0.90;;;0.90;;
29030;SDS011;16122;50.236;11.734;2022-08-01T12:48:00;1.10;;;1.00;;
29030;SDS011;16122;50.236;11.734;2022-08-01T12:50:32;1.20;;;0.80;;
29030;SDS011;16122;50.236;11.734;2022-08-01T12:52:59;1.00;;;0.80;;
29030;SDS011;16122;50.236;11.734;2022-08-01T12:55:26;0.90;;;0.90;;
29030;SDS011;16122;50.236;11.734;2022-08-01T12:58:06;1.50;;;1.00;;
29030;SDS011;16122;50.236;11.734;2022-08-01T13:00:36;1.00;;;0.90;;
29030;SDS011;16122;50.236;11.734;2022-08-01T13:03:08;0.90;;;0.80;;
29030;SDS011;16122;50.236;11.734;2022-08-01T13:08:11;0.80;;;0.73;;
29030;SDS011;16122;50.236;11.734;2022-08-01T13:10:42;1.10;;;1.00;;
29030;SDS011;16122;50.236;11.734;2022-08-01T13:13:08;0.80;;;0.80;;
29030;SDS011;16122;50.236;11.734;2022-08-01T13:15:39;1.20;;;1.00;;
29030;SDS011;16122;50.236;11.734;2022-08-01T13:21:07;1.63;;;0.90;;
29030;SDS011;16122;50.236;11.734;2022-08-01T13:24:00;1.10;;;1.00;;
29030;SDS011;16122;50.236;11.734;2022-08-01T13:29:20;1.00;;;0.90;;
29030;SDS011;16122;50.236;11.734;2022-08-01T13:31:53;0.97;;;0.97;;
29030;SDS011;16122;50.236;11.734;2022-08-01T13:34:28;1.13;;;1.03;;
29030;SDS011;16122;50.236;11.734;2022-08-01T13:36:58;1.00;;;0.90;;
29030;SDS011;16122;50.236;11.734;2022-08-01T13:39:29;0.80;;;0.80;;
29030;SDS011;16122;50.236;11.734;2022-08-01T13:42:15;1.40;;;1.20;;
29030;SDS011;16122;50.236;11.734;2022-08-01T13:44:42;1.27;;;0.90;;
29030;SDS011;16122;50.236;11.734;2022-08-01T13:47:11;0.93;;;0.93;;
29030;SDS011;16122;50.236;11.734;2022-08-01T13:49:37;0.93;;;0.87;;
29030;SDS011;16122;50.236;11.734;2022-08-01T13:52:03;1.20;;;1.10;;
29030;SDS011;16122;50.236;11.734;2022-08-01T13:54:32;1.30;;;1.13;;
29030;SDS011;16122;50.236;11.734;2022-08-01T13:56:58;0.80;;;0.73;;
29030;SDS011;16122;50.236;11.734;2022-08-01T13:59:24;1.30;;;1.00;;
29030;SDS011;16122;50.236;11.734;2022-08-01T14:01:50;0.90;;;0.90;;
29030;SDS011;16122;50.236;11.734;2022-08-01T14:04:16;1.07;;;0.97;;
29030;SDS011;16122;50.236;11.734;2022-08-01T14:06:42;1.03;;;0.93;;
29030;SDS011;16122;50.236;11.734;2022-08-01T14:09:08;1.13;;;1.03;;
29030;SDS011;16122;50.236;11.734;2022-08-01T14:11:34;1.00;;;1.00;;
29030;SDS011;16122;50.236;11.734;2022-08-01T14:14:00;1.20;;;1.10;;
29030;SDS011;16122;50.236;11.734;2022-08-01T14:16:26;0.90;;;0.90;;
29030;SDS011;16122;50.236;11.734;2022-08-01T14:18:52;1.17;;;1.07;;
29030;SDS011;16122;50.236;11.734;2022-08-01T14:21:18;1.20;;;1.10;;
29030;SDS011;16122;50.236;11.734;2022-08-01T14:23:44;1.40;;;1.30;;
29030;SDS011;16122;50.236;11.734;2022-08-01T14:26:11;1.73;;;1.00;;
29030;SDS011;16122;50.236;11.734;2022-08-01T14:28:37;2.70;;;1.40;;
29030;SDS011;16122;50.236;11.734;2022-08-01T14:31:03;1.30;;;1.20;;
29030;SDS011;16122;50.236;11.734;2022-08-01T14:33:31;1.30;;;1.20;;
29030;SDS011;16122;50.236;11.734;2022-08-01T14:35:57;1.30;;;1.10;;
29030;SDS011;16122;50.236;11.734;2022-08-01T14:38:23;1.57;;;1.37;;
29030;SDS011;16122;50.236;11.734;2022-08-01T14:40:49;1.23;;;1.13;;
29030;SDS011;16122;50.236;11.734;2022-08-01T14:43:18;1.50;;;1.20;;
29030;SDS011;16122;50.236;11.734;2022-08-01T14:45:46;1.47;;;1.37;;
29030;SDS011;16122;50.236;11.734;2022-08-01T14:48:16;1.30;;;1.20;;
29030;SDS011;16122;50.236;11.734;2022-08-01T14:50:42;1.20;;;1.10;;
29030;SDS011;16122;50.236;11.734;2022-08-01T14:53:09;1.63;;;1.47;;
29030;SDS011;16122;50.236;11.734;2022-08-01T14:55:35;2.00;;;1.50;;
29030;SDS011;16122;50.236;11.734;2022-08-01T14:58:00;1.63;;;1.30;;
29030;SDS011;16122;50.236;11.734;2022-08-01T15:00:26;1.40;;;1.30;;
29030;SDS011;16122;50.236;11.734;2022-08-01T15:02:52;1.30;;;1.20;;
29030;SDS011;16122;50.236;11.734;2022-08-01T15:05:18;1.63;;;1.00;;
29030;SDS011;16122;50.236;11.734;2022-08-01T15:07:45;3.73;;;1.20;;
29030;SDS011;16122;50.236;11.734;2022-08-01T15:10:10;2.03;;;1.40;;
29030;SDS011;16122;50.236;11.734;2022-08-01T15:12:36;1.50;;;1.40;;
29030;SDS011;16122;50.236;11.734;2022-08-01T15:15:02;2.47;;;1.60;;
29030;SDS011;16122;50.236;11.734;2022-08-01T15:17:29;1.87;;;1.73;;
29030;SDS011;16122;50.236;11.734;2022-08-01T15:20:00;5.50;;;1.80;;
29030;SDS011;16122;50.236;11.734;2022-08-01T15:22:29;1.60;;;1.50;;